Terminal Aerodrome Forecast
Issued by NWS

Home | Current Version | Previous Version | Text Only | Print | Product List | Glossary On
Versions: 1 2 3 4 5 6 7 8 9 10 11 12 13 14 15
431
FTUS46 KSGX 082338
TAFCRQ
TAF
KCRQ 082338Z 0900/0924 VRB03KT P6SM FEW200
     FM090100 VRB04KT P6SM SCT012 BKN200
      TEMPO 0908/0912 BKN012
     FM092100 25006KT P6SM BKN015 BKN150=

USA.gov is the U.S. government's official web portal to all federal, state and local government web resources and services.